Time;durP1;ratioP1;P1;durP2;ratioP2;P2;SDS_P1;SDS_P2;PMS_P1;PMS_P2;Temp;Humidity;BMP_temperature;BMP_pressure;BME280_temperature;BME280_humidity;BME280_pressure;Samples;Min_cycle;Max_cycle;Signal;HPM_P1;HPM_P2
2023/01/02 00:01:38;;;;;;;8.02;3.53;;;9.70;92.00;;;;;;5014502;28;20052;-51
2023/01/02 00:04:12;;;;;;;9.93;3.22;;;9.70;92.10;;;;;;5012716;28;20467;-51
2023/01/02 00:06:39;;;;;;;8.30;3.55;;;9.70;92.10;;;;;;5022874;28;20080;-50
2023/01/02 00:09:07;;;;;;;9.88;4.45;;;9.70;92.10;;;;;;5030357;28;20044;-53
2023/01/02 00:11:34;;;;;;;12.05;3.67;;;9.70;92.20;;;;;;5032456;28;20379;-52
2023/01/02 00:14:00;;;;;;;6.28;3.40;;;9.70;92.40;;;;;;5017524;28;20061;-49
2023/01/02 00:16:27;;;;;;;9.95;4.35;;;9.70;92.40;;;;;;5038388;28;20354;-49
2023/01/02 00:18:54;;;;;;;9.75;3.67;;;9.60;92.50;;;;;;5050199;28;20454;-51
2023/01/02 00:21:21;;;;;;;12.35;4.40;;;9.60;92.60;;;;;;5032638;28;20037;-48
2023/01/02 00:23:48;;;;;;;9.32;4.00;;;9.60;92.70;;;;;;5019902;28;20021;-49
2023/01/02 00:26:18;;;;;;;16.58;6.57;;;9.70;92.80;;;;;;5012167;28;20399;-48
2023/01/02 00:28:43;;;;;;;11.88;4.60;;;9.60;92.90;;;;;;5013776;28;20383;-50
2023/01/02 00:31:12;;;;;;;16.17;5.70;;;9.70;93.00;;;;;;5041475;28;20119;-52
2023/01/02 00:33:39;;;;;;;11.68;5.03;;;9.70;93.10;;;;;;5039340;28;20451;-54
2023/01/02 00:36:10;;;;;;;10.15;5.15;;;9.70;93.10;;;;;;5032514;28;20079;-48
2023/01/02 00:38:38;;;;;;;7.40;4.57;;;9.70;93.10;;;;;;5032676;28;20017;-51
2023/01/02 00:41:06;;;;;;;10.73;5.50;;;9.70;93.20;;;;;;5031847;28;20037;-50
2023/01/02 00:43:35;;;;;;;10.63;4.05;;;9.70;93.20;;;;;;5031770;28;20026;-52
2023/01/02 00:46:03;;;;;;;12.95;4.78;;;9.70;93.30;;;;;;5033619;28;20091;-52
2023/01/02 00:48:30;;;;;;;9.77;4.75;;;9.70;93.30;;;;;;5051328;28;20029;-59
2023/01/02 00:50:56;;;;;;;9.45;4.97;;;9.70;93.40;;;;;;5051332;28;20032;-60
2023/01/02 00:53:23;;;;;;;10.82;5.22;;;9.70;93.50;;;;;;5035553;28;20100;-58
2023/01/02 00:55:48;;;;;;;12.02;4.63;;;9.70;93.60;;;;;;5045089;28;20033;-58
2023/01/02 00:58:16;;;;;;;13.50;5.38;;;9.70;93.60;;;;;;5031286;28;20032;-59
2023/01/02 01:00:43;;;;;;;10.23;5.57;;;9.70;93.70;;;;;;5020537;28;20045;-59
2023/01/02 01:03:10;;;;;;;10.73;5.72;;;9.70;93.70;;;;;;5012363;28;20032;-59
2023/01/02 01:05:38;;;;;;;11.10;6.75;;;9.80;93.90;;;;;;5030212;28;20182;-58
2023/01/02 01:08:07;;;;;;;13.40;7.47;;;9.80;93.90;;;;;;5050849;28;20338;-58
2023/01/02 01:10:35;;;;;;;14.03;8.07;;;9.80;94.00;;;;;;5040272;28;20029;-57
2023/01/02 01:13:01;;;;;;;15.40;8.00;;;9.80;94.10;;;;;;5031294;28;20272;-57
2023/01/02 01:15:32;;;;;;;14.50;7.60;;;9.80;94.20;;;;;;5033664;28;20083;-58
2023/01/02 01:17:59;;;;;;;11.05;6.68;;;9.80;94.20;;;;;;5031886;28;20029;-58
2023/01/02 01:20:28;;;;;;;11.73;6.78;;;9.80;94.20;;;;;;5031774;28;20040;-58
2023/01/02 01:22:55;;;;;;;11.20;6.65;;;9.80;94.20;;;;;;5031556;28;20083;-57
2023/01/02 01:25:22;;;;;;;14.05;6.38;;;9.70;94.30;;;;;;5031021;28;20049;-57
2023/01/02 01:27:52;;;;;;;11.25;5.97;;;9.70;94.30;;;;;;5031949;28;20112;-57
2023/01/02 01:30:17;;;;;;;11.57;6.43;;;9.70;94.30;;;;;;5029722;28;20028;-54
2023/01/02 01:32:44;;;;;;;8.95;5.32;;;9.70;94.40;;;;;;5029616;28;20093;-58
2023/01/02 01:35:11;;;;;;;10.57;6.25;;;9.70;94.40;;;;;;5029302;28;20107;-58
2023/01/02 01:37:38;;;;;;;8.45;5.47;;;9.70;94.40;;;;;;5029787;28;20025;-60
2023/01/02 01:40:06;;;;;;;9.82;6.75;;;9.70;94.40;;;;;;5031773;28;20021;-59
2023/01/02 01:42:35;;;;;;;14.02;7.53;;;9.70;94.50;;;;;;5031463;28;20398;-59
2023/01/02 01:45:02;;;;;;;14.40;7.57;;;9.70;94.50;;;;;;5031728;28;20022;-58
2023/01/02 01:47:53;;;;;;;11.93;7.55;;;9.70;94.60;;;;;;5031340;28;20091;-59
2023/01/02 01:50:31;;;;;;;10.45;7.57;;;9.70;94.60;;;;;;5033664;28;20036;-59
2023/01/02 01:53:08;;;;;;;8.80;5.90;;;9.70;94.70;;;;;;5035020;28;20032;-59
2023/01/02 01:55:40;;;;;;;9.48;6.95;;;9.80;94.70;;;;;;5051487;28;20603;-59
2023/01/02 01:58:46;;;;;;;12.50;7.22;;;9.80;94.70;;;;;;5040403;28;20613;-59
2023/01/02 02:01:16;;;;;;;11.63;7.78;;;9.80;94.70;;;;;;5037996;28;20041;-59
2023/01/02 02:03:46;;;;;;;12.23;8.35;;;9.80;94.70;;;;;;5030265;28;20029;-59
2023/01/02 02:06:16;;;;;;;8.85;6.70;;;9.80;94.70;;;;;;5039401;28;20056;-59
2023/01/02 02:08:54;;;;;;;11.20;9.75;;;9.80;94.80;;;;;;5036836;28;20026;-58
2023/01/02 02:11:21;;;;;;;9.27;7.75;;;9.70;94.80;;;;;;5031169;28;20044;-58
2023/01/02 02:13:49;;;;;;;8.85;7.80;;;9.80;94.90;;;;;;5031667;28;20064;-58
2023/01/02 02:16:17;;;;;;;10.95;8.05;;;9.90;94.90;;;;;;5030029;28;20036;-59
2023/01/02 02:19:11;;;;;;;9.40;8.10;;;9.80;94.90;;;;;;5038445;28;20025;-58
2023/01/02 02:22:25;;;;;;;12.75;8.10;;;9.80;94.90;;;;;;5043794;28;20029;-57
2023/01/02 02:25:11;;;;;;;10.20;7.70;;;9.80;95.00;;;;;;5033756;28;20040;-55
2023/01/02 02:27:46;;;;;;;12.60;8.45;;;9.80;95.00;;;;;;5027692;28;20454;-54
2023/01/02 02:30:36;;;;;;;11.43;9.00;;;9.80;95.00;;;;;;5014494;28;20344;-54
2023/01/02 02:33:21;;;;;;;11.88;10.02;;;9.90;95.10;;;;;;5016769;28;20029;-54
2023/01/02 02:36:13;;;;;;;16.15;10.57;;;9.90;95.10;;;;;;5033952;28;20030;-55
2023/01/02 02:39:05;;;;;;;14.18;10.75;;;9.90;95.10;;;;;;5034769;28;20056;-52
2023/01/02 02:42:10;;;;;;;14.60;10.75;;;9.90;95.10;;;;;;5049602;28;20036;-55
2023/01/02 02:44:54;;;;;;;16.73;10.85;;;9.90;95.10;;;;;;5020781;28;20049;-50
2023/01/02 02:47:29;;;;;;;18.75;13.70;;;9.90;95.20;;;;;;5014894;28;20632;-50
2023/01/02 02:50:15;;;;;;;14.45;12.40;;;9.90;95.20;;;;;;5014895;28;20440;-50
2023/01/02 02:53:03;;;;;;;17.50;13.13;;;9.90;95.20;;;;;;5029602;28;20379;-50
2023/01/02 02:55:52;;;;;;;19.83;15.35;;;10.00;95.30;;;;;;5033763;28;20529;-55
2023/01/02 02:58:21;;;;;;;18.23;16.30;;;10.00;95.30;;;;;;5034469;28;20059;-53
2023/01/02 03:00:48;;;;;;;17.58;13.30;;;10.00;95.30;;;;;;5037242;28;20324;-53
2023/01/02 03:03:22;;;;;;;16.90;14.32;;;10.00;95.30;;;;;;5054288;28;20044;-54
2023/01/02 03:06:20;;;;;;;20.42;13.90;;;10.10;95.40;;;;;;5039463;28;20132;-55
2023/01/02 03:09:20;;;;;;;19.98;15.05;;;10.10;95.40;;;;;;5033283;28;20044;-51
2023/01/02 03:12:15;;;;;;;18.80;15.32;;;10.10;95.40;;;;;;5016015;28;20037;-50
2023/01/02 03:14:58;;;;;;;21.48;16.20;;;10.20;95.50;;;;;;5034389;28;20025;-51
2023/01/02 03:18:02;;;;;;;21.38;16.65;;;10.20;95.50;;;;;;5016822;28;20045;-51
2023/01/02 03:20:37;;;;;;;27.00;17.75;;;10.20;95.50;;;;;;5029531;28;20367;-52
2023/01/02 03:23:09;;;;;;;23.23;18.35;;;10.20;95.60;;;;;;5032669;28;20029;-52
2023/01/02 03:25:37;;;;;;;22.17;18.30;;;10.30;95.60;;;;;;5033193;28;20602;-50
2023/01/02 03:28:07;;;;;;;28.48;19.85;;;10.30;95.60;;;;;;5032251;28;20031;-51
2023/01/02 03:30:37;;;;;;;19.90;17.63;;;10.40;95.60;;;;;;5032374;28;20034;-48
2023/01/02 03:33:23;;;;;;;23.52;18.70;;;10.40;95.60;;;;;;5019104;28;20033;-47
2023/01/02 03:35:54;;;;;;;23.27;18.15;;;10.40;95.70;;;;;;5033216;28;20493;-50
2023/01/02 03:38:32;;;;;;;23.27;17.92;;;10.40;95.70;;;;;;5032817;28;20030;-51
2023/01/02 03:41:22;;;;;;;25.70;18.95;;;10.40;95.70;;;;;;5035425;28;20033;-51
2023/01/02 03:43:53;;;;;;;26.90;18.77;;;10.50;95.70;;;;;;5037485;28;20044;-52
2023/01/02 03:46:33;;;;;;;24.05;19.17;;;10.50;95.70;;;;;;5031981;28;20024;-48
2023/01/02 03:49:22;;;;;;;22.58;18.83;;;10.50;95.70;;;;;;5043397;28;20025;-51
2023/01/02 03:51:50;;;;;;;23.43;18.60;;;10.50;95.70;;;;;;5053308;28;20021;-52
2023/01/02 03:54:17;;;;;;;22.70;18.00;;;10.60;95.70;;;;;;5052340;28;20577;-48
2023/01/02 03:56:59;;;;;;;26.52;19.58;;;10.60;95.70;;;;;;5032439;28;20029;-50
2023/01/02 03:59:34;;;;;;;25.05;17.80;;;10.60;95.70;;;;;;5033503;28;20431;-53
2023/01/02 04:02:12;;;;;;;24.92;19.25;;;10.60;95.70;;;;;;5024906;28;20037;-51
2023/01/02 04:04:41;;;;;;;24.23;19.70;;;10.70;95.80;;;;;;5020297;28;20025;-52
2023/01/02 04:07:15;;;;;;;25.83;19.52;;;10.70;95.70;;;;;;5032346;28;20132;-50
2023/01/02 04:09:43;;;;;;;24.50;20.48;;;10.70;95.80;;;;;;5032685;28;20039;-51
2023/01/02 04:12:19;;;;;;;24.75;17.40;;;10.70;95.80;;;;;;5032089;28;20029;-48
2023/01/02 04:15:00;;;;;;;32.38;18.90;;;10.70;95.80;;;;;;5030155;28;20049;-48
2023/01/02 04:17:33;;;;;;;30.05;19.80;;;10.80;95.80;;;;;;5026984;28;20033;-50
2023/01/02 04:20:09;;;;;;;24.08;18.60;;;10.70;95.70;;;;;;5030334;28;20371;-49
2023/01/02 04:22:46;;;;;;;27.73;19.45;;;10.80;95.80;;;;;;5013659;28;20038;-50
2023/01/02 04:25:15;;;;;;;30.23;19.35;;;10.80;95.70;;;;;;5043878;28;20450;-50
2023/01/02 04:27:48;;;;;;;32.67;20.07;;;10.70;95.70;;;;;;5012204;28;20034;-49
2023/01/02 04:30:17;;;;;;;23.58;18.90;;;10.80;95.70;;;;;;5026810;28;20346;-48
2023/01/02 04:32:46;;;;;;;25.10;18.77;;;10.80;95.80;;;;;;5032922;28;20025;-47
2023/01/02 04:35:20;;;;;;;31.23;20.10;;;10.80;95.70;;;;;;5050587;28;20065;-47
2023/01/02 04:37:52;;;;;;;31.17;19.45;;;10.90;95.70;;;;;;5044231;28;20060;-52
2023/01/02 04:40:28;;;;;;;23.15;18.17;;;10.80;95.70;;;;;;5031253;28;20021;-49
2023/01/02 04:42:55;;;;;;;28.65;19.05;;;10.90;95.80;;;;;;5032793;28;20036;-46
2023/01/02 04:45:22;;;;;;;24.02;17.88;;;10.90;95.70;;;;;;5031248;28;20555;-47
2023/01/02 04:47:52;;;;;;;22.08;16.65;;;10.90;95.70;;;;;;5014595;28;20064;-50
2023/01/02 04:50:21;;;;;;;25.65;17.38;;;10.90;95.70;;;;;;5032539;28;20049;-50
2023/01/02 04:52:48;;;;;;;21.67;16.70;;;10.90;95.70;;;;;;5040360;28;20061;-50
2023/01/02 04:55:15;;;;;;;27.92;17.20;;;10.90;95.70;;;;;;5031214;28;20032;-49
2023/01/02 04:57:43;;;;;;;30.38;17.92;;;10.90;95.70;;;;;;5021601;28;20030;-50
2023/01/02 05:00:10;;;;;;;23.55;18.38;;;10.90;95.70;;;;;;5016093;28;20325;-52
2023/01/02 05:02:39;;;;;;;26.33;16.95;;;10.90;95.70;;;;;;5011555;28;20075;-50
2023/01/02 05:05:07;;;;;;;22.63;15.85;;;10.90;95.70;;;;;;5018590;28;20041;-51
2023/01/02 05:07:37;;;;;;;24.98;17.10;;;10.90;95.70;;;;;;5022354;28;20029;-48
2023/01/02 05:10:05;;;;;;;22.75;16.80;;;10.90;95.70;;;;;;5025066;28;20025;-50
2023/01/02 05:12:36;;;;;;;27.73;16.05;;;10.90;95.70;;;;;;5024727;28;20025;-48
2023/01/02 05:15:07;;;;;;;21.48;15.93;;;11.00;95.70;;;;;;5023679;28;20064;-48
2023/01/02 05:17:38;;;;;;;22.25;15.20;;;11.00;95.70;;;;;;5024745;28;20025;-49
2023/01/02 05:20:08;;;;;;;24.52;16.90;;;11.00;95.70;;;;;;5020194;28;20057;-50
2023/01/02 05:25:24;;;;;;;;;;;11.00;95.70;;;;;;5044210;28;20402;-53
2023/01/02 05:27:53;;;;;;;20.85;13.18;;;11.00;95.70;;;;;;5049316;28;20368;-52
2023/01/02 05:30:20;;;;;;;18.90;13.82;;;11.00;95.70;;;;;;5022583;28;20036;-52
2023/01/02 05:32:47;;;;;;;21.30;16.40;;;11.00;95.70;;;;;;5022409;28;20125;-52
2023/01/02 05:35:17;;;;;;;20.77;14.10;;;11.10;95.70;;;;;;5023004;28;20033;-54
2023/01/02 05:37:44;;;;;;;20.65;14.77;;;11.00;95.70;;;;;;5022381;28;20030;-59
2023/01/02 05:40:11;;;;;;;19.77;14.55;;;11.00;95.70;;;;;;5013896;28;20049;-59
2023/01/02 05:42:38;;;;;;;20.65;14.15;;;11.00;95.80;;;;;;5024468;28;20096;-59
2023/01/02 05:45:06;;;;;;;22.80;14.45;;;11.10;95.80;;;;;;5023047;28;20064;-59
2023/01/02 05:47:33;;;;;;;22.65;14.93;;;11.20;95.80;;;;;;5024485;28;20375;-60
2023/01/02 05:50:03;;;;;;;20.38;14.85;;;11.10;95.80;;;;;;5024584;28;20079;-59
2023/01/02 05:52:30;;;;;;;18.95;14.68;;;11.10;95.80;;;;;;5021493;28;20037;-59
2023/01/02 05:54:57;;;;;;;18.58;14.93;;;11.10;95.80;;;;;;5030094;28;20431;-58
2023/01/02 05:57:23;;;;;;;20.23;15.60;;;11.10;95.80;;;;;;5021720;28;20029;-55
2023/01/02 05:59:49;;;;;;;21.85;14.45;;;11.10;95.80;;;;;;5031053;28;20033;-56
2023/01/02 06:02:16;;;;;;;17.50;13.40;;;11.10;95.80;;;;;;5032456;28;20022;-53
2023/01/02 06:04:41;;;;;;;19.15;15.43;;;11.10;95.80;;;;;;5025310;28;20091;-53
2023/01/02 06:07:08;;;;;;;17.42;15.10;;;11.10;95.90;;;;;;5018648;28;20026;-54
2023/01/02 06:09:35;;;;;;;23.80;15.65;;;11.10;95.80;;;;;;5030548;28;20021;-56
2023/01/02 06:12:04;;;;;;;19.58;14.40;;;11.20;95.90;;;;;;5032669;28;20041;-56
2023/01/02 06:14:32;;;;;;;17.88;15.52;;;11.10;95.90;;;;;;5031407;28;20487;-54
2023/01/02 06:17:01;;;;;;;19.10;14.45;;;11.10;95.90;;;;;;5029465;28;20034;-52
2023/01/02 06:19:28;;;;;;;;;;;11.20;95.90;;;;;;5031523;28;20036;-51
2023/01/02 06:21:55;;;;;;;20.30;14.05;;;11.20;95.90;;;;;;5033741;28;19909;-51
2023/01/02 06:24:22;;;;;;;21.27;15.52;;;11.20;95.90;;;;;;5026828;28;20026;-59
2023/01/02 06:26:48;;;;;;;22.15;14.68;;;11.20;95.90;;;;;;5026938;28;20029;-63
2023/01/02 06:29:16;;;;;;;20.60;14.30;;;11.20;95.90;;;;;;5024171;28;20082;-63
2023/01/02 06:31:43;;;;;;;24.13;15.35;;;11.20;95.90;;;;;;5026122;28;20033;-60
2023/01/02 06:34:10;;;;;;;21.83;13.82;;;11.20;95.90;;;;;;5026733;28;20045;-61
2023/01/02 06:36:40;;;;;;;22.77;13.77;;;11.20;95.90;;;;;;5023953;28;20045;-64
2023/01/02 06:39:06;;;;;;;22.90;13.65;;;11.20;95.90;;;;;;5026793;28;20053;-63
2023/01/02 06:41:35;;;;;;;21.55;13.77;;;11.20;95.90;;;;;;5020060;28;20044;-62
2023/01/02 06:44:05;;;;;;;23.50;14.02;;;11.20;95.90;;;;;;5020868;28;20068;-62
2023/01/02 06:46:32;;;;;;;17.45;13.45;;;11.20;95.90;;;;;;5029244;28;20034;-60
2023/01/02 06:48:58;;;;;;;19.88;13.45;;;11.20;95.90;;;;;;5024572;28;20032;-54
2023/01/02 06:51:25;;;;;;;16.95;12.65;;;11.20;95.90;;;;;;5020018;28;20047;-56
2023/01/02 06:53:52;;;;;;;18.05;13.27;;;11.20;96.00;;;;;;5022777;28;20355;-57
2023/01/02 06:56:20;;;;;;;18.52;13.02;;;11.20;96.00;;;;;;5019200;28;20117;-57
2023/01/02 06:58:47;;;;;;;16.17;12.43;;;11.20;96.00;;;;;;5026312;28;20030;-52
2023/01/02 07:01:17;;;;;;;17.95;11.77;;;11.20;96.00;;;;;;5027726;28;20387;-55
2023/01/02 07:03:44;;;;;;;20.15;11.93;;;11.20;96.00;;;;;;5030428;28;20381;-58
2023/01/02 07:06:13;;;;;;;18.35;12.10;;;11.30;96.00;;;;;;5034301;28;20128;-56
2023/01/02 07:08:41;;;;;;;18.38;11.90;;;11.30;96.00;;;;;;5033729;28;20354;-56
2023/01/02 07:11:26;;;;;;;16.15;13.20;;;11.40;96.10;;;;;;5030157;28;20435;-56
2023/01/02 07:13:53;;;;;;;12.50;10.77;;;11.40;96.10;;;;;;5054487;28;20400;-54
2023/01/02 07:16:21;;;;;;;19.35;10.80;;;11.40;96.10;;;;;;5034946;28;20033;-52
2023/01/02 07:18:51;;;;;;;15.75;10.48;;;11.40;96.10;;;;;;5032942;28;20061;-55
2023/01/02 07:21:18;;;;;;;;;;;11.40;96.10;;;;;;5036097;28;20073;-58
2023/01/02 07:23:45;;;;;;;15.10;10.93;;;11.50;96.00;;;;;;5053095;28;19916;-55
2023/01/02 07:26:12;;;;;;;14.77;11.23;;;11.50;96.10;;;;;;5032415;28;20021;-62
2023/01/02 07:28:39;;;;;;;15.85;10.80;;;11.50;96.00;;;;;;5024079;28;20459;-57
2023/01/02 07:31:07;;;;;;;16.17;11.52;;;11.50;96.00;;;;;;5017949;28;20076;-58
2023/01/02 07:33:36;;;;;;;12.73;10.27;;;11.50;96.00;;;;;;5025823;28;20112;-57
2023/01/02 07:36:06;;;;;;;14.35;9.85;;;11.50;96.10;;;;;;5022373;28;20318;-54
2023/01/02 07:38:33;;;;;;;11.13;9.02;;;11.50;96.00;;;;;;5033769;28;20498;-55
2023/01/02 07:41:00;;;;;;;11.02;8.70;;;11.50;96.00;;;;;;5039231;28;20040;-57
2023/01/02 07:43:29;;;;;;;11.65;8.00;;;11.50;96.10;;;;;;5015261;28;20025;-55
2023/01/02 07:46:05;;;;;;;11.90;9.23;;;11.50;96.10;;;;;;5029581;28;20426;-59
2023/01/02 07:48:32;;;;;;;11.30;8.73;;;11.60;96.10;;;;;;5031157;28;20108;-64
2023/01/02 07:51:03;;;;;;;15.85;8.57;;;11.60;96.10;;;;;;5030498;28;20045;-59
2023/01/02 07:53:30;;;;;;;10.63;6.55;;;11.60;96.10;;;;;;5021659;28;20414;-57
2023/01/02 07:55:57;;;;;;;9.98;6.63;;;11.60;96.10;;;;;;5020785;28;20033;-58
2023/01/02 07:58:25;;;;;;;10.38;6.50;;;11.60;96.10;;;;;;5024484;28;20033;-57
2023/01/02 08:00:52;;;;;;;7.22;5.22;;;11.50;96.00;;;;;;5018999;28;20056;-57
2023/01/02 08:03:20;;;;;;;8.98;6.30;;;11.60;96.10;;;;;;5027740;28;20057;-52
2023/01/02 08:05:47;;;;;;;10.43;6.57;;;11.50;96.00;;;;;;5026646;28;20053;-56
2023/01/02 08:08:14;;;;;;;7.15;5.88;;;11.60;96.00;;;;;;5024363;28;20877;-65
2023/01/02 08:10:40;;;;;;;10.07;6.18;;;11.50;96.00;;;;;;5024250;28;20335;-65
2023/01/02 08:13:08;;;;;;;8.95;7.32;;;11.50;96.00;;;;;;5028536;28;20670;-63
2023/01/02 08:15:34;;;;;;;8.40;6.35;;;11.60;96.00;;;;;;5027934;28;20029;-61
2023/01/02 08:18:01;;;;;;;8.65;6.15;;;11.50;96.00;;;;;;5013140;28;20530;-58
2023/01/02 08:20:28;;;;;;;7.43;5.20;;;11.50;96.00;;;;;;5031946;28;20453;-56
2023/01/02 08:22:56;;;;;;;8.50;5.15;;;11.40;95.90;;;;;;5031801;28;20064;-58
2023/01/02 08:25:22;;;;;;;5.82;5.13;;;11.40;95.90;;;;;;5025627;28;20021;-61
2023/01/02 08:27:49;;;;;;;8.30;5.35;;;11.40;95.90;;;;;;5030366;28;20359;-59
2023/01/02 08:30:18;;;;;;;6.97;4.80;;;11.40;95.90;;;;;;5030763;28;20025;-60
2023/01/02 08:32:45;;;;;;;5.93;4.57;;;11.30;95.80;;;;;;5030210;28;20108;-67
2023/01/02 08:35:11;;;;;;;6.88;5.75;;;11.20;95.80;;;;;;5031080;28;20060;-63
2023/01/02 08:37:38;;;;;;;6.53;4.47;;;11.20;95.80;;;;;;5030530;28;20036;-62
2023/01/02 08:40:05;;;;;;;7.55;5.38;;;11.20;95.80;;;;;;5020342;28;20357;-60
2023/01/02 08:42:32;;;;;;;8.40;5.30;;;11.10;95.80;;;;;;5033869;28;20029;-56
2023/01/02 08:44:58;;;;;;;6.60;4.45;;;11.10;95.70;;;;;;5027293;28;20033;-52
2023/01/02 08:47:25;;;;;;;7.85;4.35;;;10.80;95.30;;;;;;5022051;28;20179;-52
2023/01/02 08:49:54;;;;;;;5.90;4.43;;;10.40;95.20;;;;;;5039698;28;20032;-55
2023/01/02 08:52:21;;;;;;;6.43;3.87;;;10.30;95.30;;;;;;5033238;28;20029;-51
2023/01/02 08:54:47;;;;;;;6.68;3.50;;;10.10;95.20;;;;;;5026321;28;20080;-51
2023/01/02 08:57:14;;;;;;;5.35;3.88;;;9.90;95.10;;;;;;5020628;28;20036;-54
2023/01/02 08:59:41;;;;;;;4.97;3.00;;;9.90;95.10;;;;;;5024110;28;20147;-54
2023/01/02 09:02:12;;;;;;;4.72;2.70;;;9.90;94.90;;;;;;5022937;28;20141;-51
2023/01/02 09:04:38;;;;;;;4.30;2.35;;;9.60;94.60;;;;;;5030337;28;20307;-53
2023/01/02 09:07:04;;;;;;;4.55;2.20;;;9.50;94.80;;;;;;5030061;28;20038;-51
2023/01/02 09:09:33;;;;;;;5.25;2.65;;;9.40;94.70;;;;;;5023113;28;20025;-49
2023/01/02 09:12:01;;;;;;;4.95;2.85;;;9.20;94.70;;;;;;5031828;28;20049;-48
2023/01/02 09:14:28;;;;;;;4.28;2.67;;;9.20;94.80;;;;;;5027173;28;20354;-52
2023/01/02 09:16:56;;;;;;;6.25;2.88;;;9.20;94.80;;;;;;5031237;28;20033;-54
2023/01/02 09:19:24;;;;;;;6.88;3.25;;;9.10;94.80;;;;;;5031506;28;20037;-49
2023/01/02 09:21:52;;;;;;;7.20;3.20;;;9.10;94.70;;;;;;5031095;28;20374;-52
2023/01/02 09:24:18;;;;;;;7.30;3.22;;;9.00;94.60;;;;;;5036201;28;20033;-53
2023/01/02 09:26:46;;;;;;;6.50;3.10;;;8.90;94.70;;;;;;5030980;28;20355;-52
2023/01/02 09:29:16;;;;;;;7.38;3.78;;;8.90;94.70;;;;;;5029247;28;20029;-53
2023/01/02 09:31:43;;;;;;;9.45;4.03;;;8.90;94.80;;;;;;5040107;28;20041;-50
2023/01/02 09:34:11;;;;;;;9.65;4.47;;;8.90;94.80;;;;;;5034613;28;20060;-50
2023/01/02 09:36:38;;;;;;;9.80;4.57;;;8.80;94.70;;;;;;5037044;28;20049;-48
2023/01/02 09:39:04;;;;;;;10.73;4.15;;;8.80;94.80;;;;;;5038254;28;20423;-47
2023/01/02 09:41:50;;;;;;;9.10;4.32;;;8.80;94.80;;;;;;5036512;28;20048;-48
2023/01/02 09:44:34;;;;;;;13.65;4.72;;;8.70;94.80;;;;;;5033796;28;20101;-51
2023/01/02 09:47:04;;;;;;;8.85;4.47;;;8.60;94.80;;;;;;5033071;28;20365;-49
2023/01/02 09:49:34;;;;;;;11.70;4.15;;;8.60;94.80;;;;;;5032447;28;20410;-47
2023/01/02 09:52:01;;;;;;;7.85;3.72;;;8.60;94.90;;;;;;5017328;28;20030;-50
2023/01/02 09:54:32;;;;;;;6.70;3.17;;;8.60;95.00;;;;;;5033448;28;20462;-50
2023/01/02 09:57:29;;;;;;;10.93;3.72;;;8.60;94.90;;;;;;5034215;28;20108;-47
2023/01/02 10:00:17;;;;;;;7.85;3.20;;;8.50;94.90;;;;;;5033135;28;20092;-48
2023/01/02 10:03:11;;;;;;;9.07;2.85;;;8.50;95.00;;;;;;5018755;28;20447;-49
2023/01/02 10:05:47;;;;;;;7.28;3.20;;;8.60;95.00;;;;;;5029052;28;20150;-47
2023/01/02 10:08:53;;;;;;;5.50;1.83;;;8.50;94.90;;;;;;5024345;28;20040;-51
2023/01/02 10:11:30;;;;;;;7.78;2.30;;;8.50;94.90;;;;;;5029841;28;20026;-49
2023/01/02 10:14:12;;;;;;;7.85;2.60;;;8.50;95.00;;;;;;5031650;28;20036;-46
2023/01/02 10:16:47;;;;;;;7.53;2.22;;;8.50;95.00;;;;;;5031347;28;20021;-53
2023/01/02 10:19:26;;;;;;;8.90;2.40;;;8.40;95.00;;;;;;5029502;28;20033;-46
2023/01/02 10:21:57;;;;;;;7.10;2.15;;;8.40;95.00;;;;;;5031536;28;20345;-46
2023/01/02 10:25:00;;;;;;;6.80;2.50;;;8.40;95.00;;;;;;5025580;28;20029;-50
2023/01/02 10:27:33;;;;;;;6.28;2.47;;;8.40;95.10;;;;;;5025212;28;20022;-47
2023/01/02 10:30:18;;;;;;;5.00;2.22;;;8.40;94.90;;;;;;5029001;28;20454;-46
2023/01/02 10:33:03;;;;;;;7.28;2.63;;;8.40;95.10;;;;;;5024271;28;20043;-51
2023/01/02 10:35:41;;;;;;;6.35;2.00;;;8.40;95.00;;;;;;5044059;28;20026;-48
2023/01/02 10:38:17;;;;;;;7.53;2.33;;;8.50;95.10;;;;;;5026654;28;20558;-46
2023/01/02 10:40:46;;;;;;;7.57;1.80;;;8.40;95.00;;;;;;5033767;28;20033;-51
2023/01/02 10:43:14;;;;;;;3.40;1.35;;;8.50;95.00;;;;;;5033804;28;20042;-46
2023/01/02 10:45:41;;;;;;;4.40;1.60;;;8.50;95.00;;;;;;5031480;28;20033;-47
2023/01/02 10:48:11;;;;;;;5.63;1.65;;;8.50;95.00;;;;;;5033872;28;20045;-47
2023/01/02 10:50:50;;;;;;;4.47;1.20;;;8.50;94.90;;;;;;5034287;28;20068;-50
2023/01/02 10:53:27;;;;;;;4.35;1.08;;;8.50;94.80;;;;;;5022559;28;20063;-47
2023/01/02 10:55:54;;;;;;;4.68;1.15;;;8.40;94.70;;;;;;5030242;28;20057;-46
2023/01/02 10:58:28;;;;;;;7.88;1.38;;;8.40;94.70;;;;;;5032830;28;20032;-46
2023/01/02 11:01:19;;;;;;;4.20;1.20;;;8.50;94.80;;;;;;5032690;28;20029;-46
2023/01/02 11:03:47;;;;;;;4.65;1.15;;;8.50;94.70;;;;;;5036496;28;20033;-46
2023/01/02 11:06:26;;;;;;;4.78;1.70;;;8.50;94.70;;;;;;5029165;28;20050;-47
2023/01/02 11:08:57;;;;;;;5.57;1.65;;;8.60;94.70;;;;;;5030265;28;20064;-46
2023/01/02 11:11:25;;;;;;;3.20;1.25;;;8.60;94.60;;;;;;5034520;28;20032;-48
2023/01/02 11:13:55;;;;;;;3.03;1.17;;;8.70;94.70;;;;;;5031920;28;20176;-49
2023/01/02 11:16:22;;;;;;;;;;;8.70;94.50;;;;;;5032324;28;20430;-47
2023/01/02 11:18:52;;;;;;;6.78;1.60;;;8.70;94.40;;;;;;5041476;28;19909;-46
2023/01/02 11:21:30;;;;;;;5.82;1.75;;;8.80;94.50;;;;;;5027225;28;20036;-46
2023/01/02 11:24:01;;;;;;;5.35;1.70;;;8.80;94.40;;;;;;5033588;28;20041;-49
2023/01/02 11:26:31;;;;;;;4.90;1.88;;;8.80;94.30;;;;;;5033822;28;20080;-47
2023/01/02 11:29:08;;;;;;;4.97;1.73;;;8.80;94.20;;;;;;5026078;28;20104;-50
2023/01/02 11:31:43;;;;;;;5.28;1.55;;;8.80;94.20;;;;;;5028636;28;20450;-51
2023/01/02 11:34:21;;;;;;;11.90;2.45;;;8.80;94.20;;;;;;5029753;28;20029;-52
2023/01/02 11:37:03;;;;;;;4.28;1.13;;;8.70;94.00;;;;;;5026874;28;20033;-51
2023/01/02 11:39:33;;;;;;;3.63;1.17;;;8.70;94.10;;;;;;5022650;28;20084;-52
2023/01/02 11:45:19;;;;;;;7.68;1.42;;;8.80;94.10;;;;;;5021474;28;20052;-50
2023/01/02 11:48:12;;;;;;;5.72;1.30;;;8.80;94.20;;;;;;5029752;28;20037;-50
2023/01/02 11:50:41;;;;;;;5.95;1.60;;;8.90;94.20;;;;;;5027889;28;20378;-49
2023/01/02 11:53:14;;;;;;;5.93;1.90;;;8.90;94.00;;;;;;5029009;28;20447;-47
2023/01/02 11:55:57;;;;;;;6.15;1.63;;;9.00;94.10;;;;;;5036022;28;20033;-49
2023/01/02 11:58:41;;;;;;;5.93;1.80;;;9.00;93.80;;;;;;5031511;28;21048;-47
2023/01/02 12:01:25;;;;;;;8.68;3.15;;;9.10;93.90;;;;;;5030738;28;20159;-50
2023/01/02 12:03:53;;;;;;;7.43;2.33;;;9.10;93.60;;;;;;5024489;28;20107;-52
2023/01/02 12:06:33;;;;;;;7.55;1.58;;;9.10;93.50;;;;;;5032490;28;20107;-49
2023/01/02 12:09:12;;;;;;;6.22;1.60;;;9.20;93.50;;;;;;5033009;28;20037;-47
2023/01/02 12:11:56;;;;;;;6.50;1.27;;;9.10;93.10;;;;;;5032361;28;20061;-49
2023/01/02 12:14:36;;;;;;;4.13;1.10;;;9.30;92.90;;;;;;5018793;28;20092;-46
2023/01/02 12:17:28;;;;;;;4.65;1.13;;;9.30;92.70;;;;;;5031581;28;20040;-50
2023/01/02 12:20:21;;;;;;;6.18;1.42;;;9.10;92.40;;;;;;5028259;28;20459;-49
2023/01/02 12:23:05;;;;;;;7.85;2.50;;;9.00;92.50;;;;;;5028357;28;20060;-50
2023/01/02 12:26:29;;;;;;;3.30;2.17;;;9.00;92.60;;;;;;5032314;28;20040;-51
2023/01/02 12:29:06;;;;;;;8.43;2.60;;;9.00;92.80;;;;;;5017023;28;20068;-49
2023/01/02 12:32:09;;;;;;;5.57;1.50;;;9.00;92.80;;;;;;5025515;28;20034;-48
2023/01/02 12:34:52;;;;;;;6.20;1.60;;;9.00;92.80;;;;;;5022633;28;20035;-48
2023/01/02 12:37:35;;;;;;;3.78;1.80;;;8.90;93.00;;;;;;5017205;28;20052;-49
2023/01/02 12:40:25;;;;;;;6.05;1.80;;;8.90;93.10;;;;;;5018476;28;20074;-49
2023/01/02 12:42:56;;;;;;;;;;;8.90;93.10;;;;;;5031684;28;20363;-49
2023/01/02 12:45:43;;;;;;;6.55;2.30;;;8.90;93.00;;;;;;5029981;28;20369;-48
2023/01/02 12:48:55;;;;;;;8.02;1.88;;;8.90;92.90;;;;;;5012915;28;20026;-47
2023/01/02 12:52:05;;;;;;;7.97;1.77;;;9.00;92.90;;;;;;5028018;28;20044;-46
2023/01/02 12:55:08;;;;;;;3.25;1.35;;;8.90;92.90;;;;;;5010143;28;20057;-47
2023/01/02 12:57:55;;;;;;;3.22;1.33;;;9.00;92.90;;;;;;5023362;28;20124;-47
2023/01/02 13:00:36;;;;;;;6.75;1.60;;;9.00;92.80;;;;;;5019662;28;20072;-48
2023/01/02 13:03:39;;;;;;;3.90;1.85;;;9.00;92.60;;;;;;5026436;28;20049;-48
2023/01/02 13:06:39;;;;;;;4.93;1.80;;;9.00;92.80;;;;;;5031088;28;20056;-46
2023/01/02 13:09:20;;;;;;;7.10;2.53;;;9.00;92.50;;;;;;5027176;28;20033;-46
2023/01/02 13:12:00;;;;;;;5.70;1.60;;;9.00;92.20;;;;;;5022360;28;20040;-48
2023/01/02 13:14:42;;;;;;;3.92;1.58;;;9.00;92.30;;;;;;5028369;28;20083;-46
2023/01/02 13:17:20;;;;;;;6.45;2.40;;;9.00;92.20;;;;;;5031367;28;20108;-48
2023/01/02 13:19:58;;;;;;;8.07;1.90;;;8.90;92.30;;;;;;5029652;28;20048;-46
2023/01/02 13:23:01;;;;;;;6.28;2.78;;;8.90;92.30;;;;;;5019326;28;20809;-45
2023/01/02 13:25:30;;;;;;;6.68;2.10;;;8.90;92.30;;;;;;5025457;28;20037;-49